sensor_id;sensor_type;location;lat;lon;timestamp;temperature;humidity
56234;DHT22;42141;53.240;6.580;2023-03-24T00:02:12;11.60;99.90
56234;DHT22;42141;53.240;6.580;2023-03-24T00:04:39;11.60;99.90
56234;DHT22;42141;53.240;6.580;2023-03-24T00:07:08;11.60;99.90
56234;DHT22;42141;53.240;6.580;2023-03-24T00:09:39;11.60;99.90
56234;DHT22;42141;53.240;6.580;2023-03-24T00:12:05;11.60;99.90
56234;DHT22;42141;53.240;6.580;2023-03-24T00:14:31;11.60;99.90
56234;DHT22;42141;53.240;6.580;2023-03-24T00:16:56;11.60;99.90
56234;DHT22;42141;53.240;6.580;2023-03-24T00:19:24;11.60;99.90
56234;DHT22;42141;53.240;6.580;2023-03-24T00:21:50;11.60;99.90
56234;DHT22;42141;53.240;6.580;2023-03-24T00:24:20;11.60;99.90
56234;DHT22;42141;53.240;6.580;2023-03-24T00:26:47;11.60;99.90
56234;DHT22;42141;53.240;6.580;2023-03-24T00:29:15;11.60;99.90
56234;DHT22;42141;53.240;6.580;2023-03-24T00:31:41;11.60;99.90
56234;DHT22;42141;53.240;6.580;2023-03-24T00:34:08;11.60;99.90
56234;DHT22;42141;53.240;6.580;2023-03-24T00:36:35;11.60;99.90
56234;DHT22;42141;53.240;6.580;2023-03-24T00:39:02;11.50;99.90
56234;DHT22;42141;53.240;6.580;2023-03-24T00:41:29;11.50;99.90
56234;DHT22;42141;53.240;6.580;2023-03-24T00:43:56;11.60;99.90
56234;DHT22;42141;53.240;6.580;2023-03-24T00:46:23;11.50;99.90
56234;DHT22;42141;53.240;6.580;2023-03-24T00:48:59;11.60;99.90
56234;DHT22;42141;53.240;6.580;2023-03-24T00:51:31;11.50;99.90
56234;DHT22;42141;53.240;6.580;2023-03-24T00:53:57;11.50;99.90
56234;DHT22;42141;53.240;6.580;2023-03-24T00:56:28;11.50;99.90
56234;DHT22;42141;53.240;6.580;2023-03-24T00:58:56;11.50;99.90
56234;DHT22;42141;53.240;6.580;2023-03-24T01:01:25;11.50;99.90
56234;DHT22;42141;53.240;6.580;2023-03-24T01:03:54;11.50;99.90
56234;DHT22;42141;53.240;6.580;2023-03-24T01:06:22;11.50;99.90
56234;DHT22;42141;53.240;6.580;2023-03-24T01:08:49;11.50;99.90
56234;DHT22;42141;53.240;6.580;2023-03-24T01:11:22;11.50;99.90
56234;DHT22;42141;53.240;6.580;2023-03-24T01:13:50;11.50;99.90
56234;DHT22;42141;53.240;6.580;2023-03-24T01:16:16;11.50;99.90
56234;DHT22;42141;53.240;6.580;2023-03-24T01:18:42;11.40;99.90
56234;DHT22;42141;53.240;6.580;2023-03-24T01:21:09;11.50;99.90
56234;DHT22;42141;53.240;6.580;2023-03-24T01:23:37;11.50;99.90
56234;DHT22;42141;53.240;6.580;2023-03-24T01:26:08;11.50;99.90
56234;DHT22;42141;53.240;6.580;2023-03-24T01:28:34;11.50;99.90
56234;DHT22;42141;53.240;6.580;2023-03-24T01:31:07;11.50;99.90
56234;DHT22;42141;53.240;6.580;2023-03-24T01:33:33;11.50;99.90
56234;DHT22;42141;53.240;6.580;2023-03-24T01:35:59;12.50;99.90
56234;DHT22;42141;53.240;6.580;2023-03-24T01:38:25;11.50;99.90
56234;DHT22;42141;53.240;6.580;2023-03-24T01:40:51;11.50;99.90
56234;DHT22;42141;53.240;6.580;2023-03-24T01:43:20;11.50;99.90
56234;DHT22;42141;53.240;6.580;2023-03-24T01:53:31;11.50;99.90
56234;DHT22;42141;53.240;6.580;2023-03-24T01:55:59;11.50;99.90
56234;DHT22;42141;53.240;6.580;2023-03-24T01:58:28;11.50;99.90
56234;DHT22;42141;53.240;6.580;2023-03-24T02:00:55;11.50;99.90
56234;DHT22;42141;53.240;6.580;2023-03-24T02:03:24;11.50;99.90
56234;DHT22;42141;53.240;6.580;2023-03-24T02:05:52;11.50;99.90
56234;DHT22;42141;53.240;6.580;2023-03-24T02:08:45;11.50;99.90
56234;DHT22;42141;53.240;6.580;2023-03-24T02:11:13;11.50;99.90
56234;DHT22;42141;53.240;6.580;2023-03-24T02:13:38;11.50;99.90
56234;DHT22;42141;53.240;6.580;2023-03-24T02:16:23;11.50;99.90
56234;DHT22;42141;53.240;6.580;2023-03-24T02:19:19;11.50;99.90
56234;DHT22;42141;53.240;6.580;2023-03-24T02:30:52;11.50;99.90
56234;DHT22;42141;53.240;6.580;2023-03-24T02:42:41;11.60;99.90
56234;DHT22;42141;53.240;6.580;2023-03-24T02:45:35;11.50;99.90
56234;DHT22;42141;53.240;6.580;2023-03-24T02:48:17;11.60;99.90
56234;DHT22;42141;53.240;6.580;2023-03-24T02:53:31;11.60;99.90
56234;DHT22;42141;53.240;6.580;2023-03-24T02:56:12;11.60;99.90
56234;DHT22;42141;53.240;6.580;2023-03-24T02:59:32;11.60;99.90
56234;DHT22;42141;53.240;6.580;2023-03-24T03:02:13;11.70;99.90
56234;DHT22;42141;53.240;6.580;2023-03-24T03:04:50;11.70;99.90
56234;DHT22;42141;53.240;6.580;2023-03-24T03:07:23;11.70;99.90
56234;DHT22;42141;53.240;6.580;2023-03-24T03:09:55;11.70;99.90
56234;DHT22;42141;53.240;6.580;2023-03-24T03:12:24;11.70;99.90
56234;DHT22;42141;53.240;6.580;2023-03-24T03:14:54;11.70;99.90
56234;DHT22;42141;53.240;6.580;2023-03-24T03:17:26;11.70;99.90
56234;DHT22;42141;53.240;6.580;2023-03-24T03:19:59;11.70;99.90
56234;DHT22;42141;53.240;6.580;2023-03-24T03:22:32;11.80;99.90
56234;DHT22;42141;53.240;6.580;2023-03-24T03:25:01;11.70;99.90
56234;DHT22;42141;53.240;6.580;2023-03-24T03:27:33;11.80;99.90
56234;DHT22;42141;53.240;6.580;2023-03-24T03:30:17;11.80;99.90
56234;DHT22;42141;53.240;6.580;2023-03-24T03:33:00;11.80;99.90
56234;DHT22;42141;53.240;6.580;2023-03-24T03:35:34;11.80;99.90
56234;DHT22;42141;53.240;6.580;2023-03-24T03:40:59;11.80;99.90
56234;DHT22;42141;53.240;6.580;2023-03-24T03:43:27;11.80;99.90
56234;DHT22;42141;53.240;6.580;2023-03-24T03:45:54;11.70;99.90
56234;DHT22;42141;53.240;6.580;2023-03-24T03:48:21;11.70;99.90
56234;DHT22;42141;53.240;6.580;2023-03-24T03:50:51;11.60;99.90
56234;DHT22;42141;53.240;6.580;2023-03-24T03:53:19;11.50;99.90
56234;DHT22;42141;53.240;6.580;2023-03-24T03:55:47;11.50;99.90
56234;DHT22;42141;53.240;6.580;2023-03-24T03:58:13;11.40;99.90
56234;DHT22;42141;53.240;6.580;2023-03-24T04:00:40;11.30;99.90
56234;DHT22;42141;53.240;6.580;2023-03-24T04:05:59;11.30;99.90
56234;DHT22;42141;53.240;6.580;2023-03-24T04:14:08;11.10;99.90
56234;DHT22;42141;53.240;6.580;2023-03-24T04:25:29;10.90;99.90
56234;DHT22;42141;53.240;6.580;2023-03-24T04:31:14;10.80;99.90
56234;DHT22;42141;53.240;6.580;2023-03-24T04:33:53;10.70;99.90
56234;DHT22;42141;53.240;6.580;2023-03-24T04:36:30;10.70;99.90
56234;DHT22;42141;53.240;6.580;2023-03-24T04:38:59;10.60;99.90
56234;DHT22;42141;53.240;6.580;2023-03-24T04:41:28;10.50;99.90
56234;DHT22;42141;53.240;6.580;2023-03-24T04:43:56;10.40;99.90
56234;DHT22;42141;53.240;6.580;2023-03-24T04:46:23;10.40;99.90
56234;DHT22;42141;53.240;6.580;2023-03-24T04:48:51;10.30;99.90
56234;DHT22;42141;53.240;6.580;2023-03-24T04:51:19;10.20;99.90
56234;DHT22;42141;53.240;6.580;2023-03-24T04:53:46;10.20;99.90
56234;DHT22;42141;53.240;6.580;2023-03-24T04:56:29;10.10;99.90
56234;DHT22;42141;53.240;6.580;2023-03-24T04:58:55;10.10;99.90
56234;DHT22;42141;53.240;6.580;2023-03-24T05:01:24;10.00;99.90
56234;DHT22;42141;53.240;6.580;2023-03-24T05:03:53;10.00;99.90
56234;DHT22;42141;53.240;6.580;2023-03-24T05:06:19;10.00;99.90
56234;DHT22;42141;53.240;6.580;2023-03-24T05:08:45;9.90;99.90
56234;DHT22;42141;53.240;6.580;2023-03-24T05:11:12;9.90;99.90
56234;DHT22;42141;53.240;6.580;2023-03-24T05:13:37;9.80;99.90
56234;DHT22;42141;53.240;6.580;2023-03-24T05:16:03;9.80;99.90
56234;DHT22;42141;53.240;6.580;2023-03-24T05:18:29;9.80;99.90
56234;DHT22;42141;53.240;6.580;2023-03-24T05:20:55;10.40;99.90
56234;DHT22;42141;53.240;6.580;2023-03-24T05:23:21;9.80;99.90
56234;DHT22;42141;53.240;6.580;2023-03-24T05:25:47;9.70;99.90
56234;DHT22;42141;53.240;6.580;2023-03-24T05:28:13;9.70;99.90
56234;DHT22;42141;53.240;6.580;2023-03-24T05:30:38;9.80;99.90
56234;DHT22;42141;53.240;6.580;2023-03-24T05:33:04;9.70;99.90
56234;DHT22;42141;53.240;6.580;2023-03-24T05:35:30;9.70;99.90
56234;DHT22;42141;53.240;6.580;2023-03-24T05:37:55;10.20;99.90
56234;DHT22;42141;53.240;6.580;2023-03-24T05:40:21;9.70;99.90
56234;DHT22;42141;53.240;6.580;2023-03-24T05:42:50;10.40;99.90
56234;DHT22;42141;53.240;6.580;2023-03-24T05:45:16;9.70;99.90
56234;DHT22;42141;53.240;6.580;2023-03-24T05:47:42;9.80;99.90
56234;DHT22;42141;53.240;6.580;2023-03-24T05:50:08;9.80;99.90
56234;DHT22;42141;53.240;6.580;2023-03-24T05:52:34;9.80;99.90
56234;DHT22;42141;53.240;6.580;2023-03-24T05:55:00;10.00;99.90
56234;DHT22;42141;53.240;6.580;2023-03-24T05:57:26;10.30;99.90
56234;DHT22;42141;53.240;6.580;2023-03-24T05:59:56;9.90;99.90
56234;DHT22;42141;53.240;6.580;2023-03-24T06:02:22;9.90;99.90
56234;DHT22;42141;53.240;6.580;2023-03-24T06:04:48;9.90;99.90
56234;DHT22;42141;53.240;6.580;2023-03-24T06:07:16;9.90;99.90
56234;DHT22;42141;53.240;6.580;2023-03-24T06:09:42;10.20;99.90
56234;DHT22;42141;53.240;6.580;2023-03-24T06:12:11;10.90;99.90
56234;DHT22;42141;53.240;6.580;2023-03-24T06:14:37;10.40;99.90
56234;DHT22;42141;53.240;6.580;2023-03-24T06:17:03;11.10;99.90
56234;DHT22;42141;53.240;6.580;2023-03-24T06:19:29;10.00;99.90
56234;DHT22;42141;53.240;6.580;2023-03-24T06:21:58;10.50;99.90
56234;DHT22;42141;53.240;6.580;2023-03-24T06:24:28;10.00;99.90
56234;DHT22;42141;53.240;6.580;2023-03-24T06:26:54;10.00;99.90
56234;DHT22;42141;53.240;6.580;2023-03-24T06:29:27;10.50;99.90
56234;DHT22;42141;53.240;6.580;2023-03-24T06:31:53;10.00;99.90
56234;DHT22;42141;53.240;6.580;2023-03-24T06:34:22;10.00;99.90
56234;DHT22;42141;53.240;6.580;2023-03-24T06:36:49;10.00;99.90
56234;DHT22;42141;53.240;6.580;2023-03-24T06:39:15;10.10;99.90
56234;DHT22;42141;53.240;6.580;2023-03-24T06:41:41;10.00;99.90
56234;DHT22;42141;53.240;6.580;2023-03-24T06:44:10;10.00;99.90
56234;DHT22;42141;53.240;6.580;2023-03-24T06:46:36;10.30;99.90
56234;DHT22;42141;53.240;6.580;2023-03-24T06:49:02;10.00;99.90
56234;DHT22;42141;53.240;6.580;2023-03-24T06:51:28;10.00;99.90
56234;DHT22;42141;53.240;6.580;2023-03-24T06:53:54;10.00;99.90
56234;DHT22;42141;53.240;6.580;2023-03-24T06:56:19;10.00;99.90
56234;DHT22;42141;53.240;6.580;2023-03-24T06:58:46;10.00;99.90
56234;DHT22;42141;53.240;6.580;2023-03-24T07:01:13;10.00;99.90
56234;DHT22;42141;53.240;6.580;2023-03-24T07:03:40;10.10;99.90
56234;DHT22;42141;53.240;6.580;2023-03-24T07:06:07;10.00;99.90
56234;DHT22;42141;53.240;6.580;2023-03-24T07:08:35;10.00;99.90
56234;DHT22;42141;53.240;6.580;2023-03-24T07:11:02;10.10;99.90
56234;DHT22;42141;53.240;6.580;2023-03-24T07:13:28;10.10;99.90
56234;DHT22;42141;53.240;6.580;2023-03-24T07:15:54;10.10;99.90
56234;DHT22;42141;53.240;6.580;2023-03-24T07:18:19;10.20;99.90
56234;DHT22;42141;53.240;6.580;2023-03-24T07:20:46;10.10;99.90
56234;DHT22;42141;53.240;6.580;2023-03-24T07:23:12;10.50;99.90
56234;DHT22;42141;53.240;6.580;2023-03-24T07:25:41;10.20;99.90
56234;DHT22;42141;53.240;6.580;2023-03-24T07:28:07;10.30;99.90
56234;DHT22;42141;53.240;6.580;2023-03-24T07:30:34;10.20;99.90
56234;DHT22;42141;53.240;6.580;2023-03-24T07:33:01;10.20;99.90
56234;DHT22;42141;53.240;6.580;2023-03-24T07:35:28;10.30;99.90
56234;DHT22;42141;53.240;6.580;2023-03-24T07:38:00;10.30;99.90
56234;DHT22;42141;53.240;6.580;2023-03-24T07:40:26;10.20;99.90
56234;DHT22;42141;53.240;6.580;2023-03-24T07:42:52;10.30;99.90
56234;DHT22;42141;53.240;6.580;2023-03-24T07:45:18;10.30;99.90
56234;DHT22;42141;53.240;6.580;2023-03-24T07:47:45;10.70;99.90
56234;DHT22;42141;53.240;6.580;2023-03-24T07:50:12;10.30;99.90
56234;DHT22;42141;53.240;6.580;2023-03-24T07:52:40;10.30;99.90
56234;DHT22;42141;53.240;6.580;2023-03-24T07:55:08;10.80;99.90
56234;DHT22;42141;53.240;6.580;2023-03-24T07:57:48;10.40;99.90
56234;DHT22;42141;53.240;6.580;2023-03-24T08:00:14;10.40;99.90
56234;DHT22;42141;53.240;6.580;2023-03-24T08:02:44;10.50;99.90
56234;DHT22;42141;53.240;6.580;2023-03-24T08:05:10;10.50;99.90
56234;DHT22;42141;53.240;6.580;2023-03-24T08:07:40;10.60;99.90
56234;DHT22;42141;53.240;6.580;2023-03-24T08:10:11;10.60;99.90
56234;DHT22;42141;53.240;6.580;2023-03-24T08:12:37;10.70;99.90
56234;DHT22;42141;53.240;6.580;2023-03-24T08:15:05;10.70;99.90
56234;DHT22;42141;53.240;6.580;2023-03-24T08:17:32;10.70;99.90
56234;DHT22;42141;53.240;6.580;2023-03-24T08:19:58;10.80;99.90
56234;DHT22;42141;53.240;6.580;2023-03-24T08:22:24;10.80;99.90
56234;DHT22;42141;53.240;6.580;2023-03-24T08:24:50;10.80;99.90
56234;DHT22;42141;53.240;6.580;2023-03-24T08:27:15;10.90;99.90
56234;DHT22;42141;53.240;6.580;2023-03-24T08:29:42;10.90;99.90
56234;DHT22;42141;53.240;6.580;2023-03-24T08:32:08;11.00;99.90
56234;DHT22;42141;53.240;6.580;2023-03-24T08:34:33;11.00;99.90
56234;DHT22;42141;53.240;6.580;2023-03-24T08:36:59;11.10;99.90
56234;DHT22;42141;53.240;6.580;2023-03-24T08:39:28;11.10;99.90
56234;DHT22;42141;53.240;6.580;2023-03-24T08:41:56;11.20;99.90
56234;DHT22;42141;53.240;6.580;2023-03-24T08:44:22;11.30;99.90
56234;DHT22;42141;53.240;6.580;2023-03-24T08:46:48;11.40;99.90
56234;DHT22;42141;53.240;6.580;2023-03-24T08:49:14;11.40;99.90
56234;DHT22;42141;53.240;6.580;2023-03-24T08:51:39;11.50;99.90
56234;DHT22;42141;53.240;6.580;2023-03-24T08:54:05;11.70;99.90
56234;DHT22;42141;53.240;6.580;2023-03-24T08:56:32;11.90;99.90
56234;DHT22;42141;53.240;6.580;2023-03-24T08:58:57;12.00;99.90
56234;DHT22;42141;53.240;6.580;2023-03-24T09:01:23;12.20;99.90
56234;DHT22;42141;53.240;6.580;2023-03-24T09:03:49;12.70;99.90
56234;DHT22;42141;53.240;6.580;2023-03-24T09:06:15;12.20;99.90
56234;DHT22;42141;53.240;6.580;2023-03-24T09:08:41;12.20;99.90
56234;DHT22;42141;53.240;6.580;2023-03-24T09:11:15;12.10;99.90
56234;DHT22;42141;53.240;6.580;2023-03-24T09:13:42;12.20;99.90
56234;DHT22;42141;53.240;6.580;2023-03-24T09:16:08;12.30;99.90
56234;DHT22;42141;53.240;6.580;2023-03-24T09:18:34;12.50;99.90
56234;DHT22;42141;53.240;6.580;2023-03-24T09:21:00;12.50;99.90
56234;DHT22;42141;53.240;6.580;2023-03-24T09:23:29;12.70;99.90
56234;DHT22;42141;53.240;6.580;2023-03-24T09:25:56;12.70;99.90
56234;DHT22;42141;53.240;6.580;2023-03-24T09:28:23;12.80;99.90
56234;DHT22;42141;53.240;6.580;2023-03-24T09:30:59;12.70;99.90
56234;DHT22;42141;53.240;6.580;2023-03-24T09:33:26;12.50;99.90
56234;DHT22;42141;53.240;6.580;2023-03-24T09:35:55;12.30;99.90
56234;DHT22;42141;53.240;6.580;2023-03-24T09:38:22;12.00;99.90
56234;DHT22;42141;53.240;6.580;2023-03-24T09:40:55;11.80;99.90
56234;DHT22;42141;53.240;6.580;2023-03-24T09:43:48;11.80;99.90
56234;DHT22;42141;53.240;6.580;2023-03-24T09:46:25;11.80;99.90
56234;DHT22;42141;53.240;6.580;2023-03-24T09:48:55;11.80;99.90
56234;DHT22;42141;53.240;6.580;2023-03-24T09:51:27;11.80;99.90
56234;DHT22;42141;53.240;6.580;2023-03-24T09:54:51;11.70;99.90
56234;DHT22;42141;53.240;6.580;2023-03-24T09:56:57;11.70;99.90
56234;DHT22;42141;53.240;6.580;2023-03-24T09:59:32;11.70;99.90
56234;DHT22;42141;53.240;6.580;2023-03-24T10:01:59;11.70;99.90
56234;DHT22;42141;53.240;6.580;2023-03-24T10:04:26;11.80;99.90
56234;DHT22;42141;53.240;6.580;2023-03-24T10:07:24;11.90;99.90
56234;DHT22;42141;53.240;6.580;2023-03-24T10:09:56;12.20;99.90
56234;DHT22;42141;53.240;6.580;2023-03-24T10:15:25;13.00;99.90
56234;DHT22;42141;53.240;6.580;2023-03-24T10:20:58;13.00;99.90
56234;DHT22;42141;53.240;6.580;2023-03-24T10:23:53;12.90;99.90
56234;DHT22;42141;53.240;6.580;2023-03-24T10:26:41;12.90;99.90
56234;DHT22;42141;53.240;6.580;2023-03-24T10:29:21;13.00;99.90
56234;DHT22;42141;53.240;6.580;2023-03-24T10:32:14;13.10;99.90
56234;DHT22;42141;53.240;6.580;2023-03-24T10:34:42;13.40;99.90
56234;DHT22;42141;53.240;6.580;2023-03-24T10:37:10;13.60;99.90
56234;DHT22;42141;53.240;6.580;2023-03-24T10:39:36;13.70;99.90
56234;DHT22;42141;53.240;6.580;2023-03-24T10:42:02;13.50;99.90
56234;DHT22;42141;53.240;6.580;2023-03-24T10:44:29;13.50;99.90
56234;DHT22;42141;53.240;6.580;2023-03-24T10:46:57;13.60;99.90
56234;DHT22;42141;53.240;6.580;2023-03-24T10:49:26;13.70;99.90
56234;DHT22;42141;53.240;6.580;2023-03-24T10:51:53;13.90;99.90
56234;DHT22;42141;53.240;6.580;2023-03-24T10:54:26;13.90;99.90
56234;DHT22;42141;53.240;6.580;2023-03-24T11:02:29;14.10;99.90
56234;DHT22;42141;53.240;6.580;2023-03-24T11:05:21;14.00;99.90
56234;DHT22;42141;53.240;6.580;2023-03-24T11:07:49;13.80;99.90
56234;DHT22;42141;53.240;6.580;2023-03-24T11:10:18;13.50;99.90
56234;DHT22;42141;53.240;6.580;2023-03-24T11:15:33;12.00;99.90
56234;DHT22;42141;53.240;6.580;2023-03-24T11:18:12;13.20;99.90
56234;DHT22;42141;53.240;6.580;2023-03-24T11:20:46;13.10;99.90
56234;DHT22;42141;53.240;6.580;2023-03-24T11:23:38;13.00;99.90
56234;DHT22;42141;53.240;6.580;2023-03-24T11:26:15;12.90;99.90
56234;DHT22;42141;53.240;6.580;2023-03-24T11:28:55;13.00;99.90
56234;DHT22;42141;53.240;6.580;2023-03-24T11:31:26;13.30;99.90
56234;DHT22;42141;53.240;6.580;2023-03-24T11:34:02;13.60;99.90
56234;DHT22;42141;53.240;6.580;2023-03-24T11:39:24;14.00;99.90
56234;DHT22;42141;53.240;6.580;2023-03-24T11:44:24;13.80;99.90
56234;DHT22;42141;53.240;6.580;2023-03-24T11:46:55;13.90;99.90
56234;DHT22;42141;53.240;6.580;2023-03-24T11:49:26;13.90;99.90
56234;DHT22;42141;53.240;6.580;2023-03-24T11:51:54;14.00;99.90
56234;DHT22;42141;53.240;6.580;2023-03-24T11:54:23;14.00;99.90
56234;DHT22;42141;53.240;6.580;2023-03-24T11:56:53;14.20;99.90
56234;DHT22;42141;53.240;6.580;2023-03-24T12:15:27;15.30;99.90
56234;DHT22;42141;53.240;6.580;2023-03-24T12:23:25;15.50;99.90
56234;DHT22;42141;53.240;6.580;2023-03-24T12:26:07;15.40;99.90
56234;DHT22;42141;53.240;6.580;2023-03-24T12:37:03;14.40;99.90
56234;DHT22;42141;53.240;6.580;2023-03-24T12:39:34;14.20;99.90
56234;DHT22;42141;53.240;6.580;2023-03-24T12:42:13;14.10;99.90
56234;DHT22;42141;53.240;6.580;2023-03-24T12:47:41;13.90;99.90
56234;DHT22;42141;53.240;6.580;2023-03-24T12:50:24;13.80;99.90
56234;DHT22;42141;53.240;6.580;2023-03-24T12:55:52;13.80;99.90
56234;DHT22;42141;53.240;6.580;2023-03-24T13:01:12;13.80;99.90
56234;DHT22;42141;53.240;6.580;2023-03-24T13:03:46;14.00;99.90
56234;DHT22;42141;53.240;6.580;2023-03-24T13:06:29;14.10;99.90
56234;DHT22;42141;53.240;6.580;2023-03-24T13:12:22;14.70;99.90
56234;DHT22;42141;53.240;6.580;2023-03-24T13:15:03;14.90;99.90
56234;DHT22;42141;53.240;6.580;2023-03-24T13:18:33;15.00;99.90
56234;DHT22;42141;53.240;6.580;2023-03-24T13:28:57;14.80;99.90
56234;DHT22;42141;53.240;6.580;2023-03-24T13:31:26;14.70;99.90
56234;DHT22;42141;53.240;6.580;2023-03-24T13:33:53;14.60;99.90
56234;DHT22;42141;53.240;6.580;2023-03-24T13:36:42;14.30;99.90
56234;DHT22;42141;53.240;6.580;2023-03-24T13:39:19;14.20;99.20
56234;DHT22;42141;53.240;6.580;2023-03-24T13:41:51;14.00;99.70
56234;DHT22;42141;53.240;6.580;2023-03-24T13:44:21;13.90;99.60
56234;DHT22;42141;53.240;6.580;2023-03-24T13:47:13;13.90;99.80
56234;DHT22;42141;53.240;6.580;2023-03-24T13:49:42;14.20;98.30
56234;DHT22;42141;53.240;6.580;2023-03-24T13:52:31;14.30;98.80
56234;DHT22;42141;53.240;6.580;2023-03-24T13:55:00;14.50;96.90
56234;DHT22;42141;53.240;6.580;2023-03-24T13:57:27;14.60;97.00
56234;DHT22;42141;53.240;6.580;2023-03-24T14:00:41;14.60;96.70
56234;DHT22;42141;53.240;6.580;2023-03-24T14:03:14;14.60;96.70
56234;DHT22;42141;53.240;6.580;2023-03-24T14:06:02;14.40;97.20
56234;DHT22;42141;53.240;6.580;2023-03-24T14:19:24;14.40;98.70
56234;DHT22;42141;53.240;6.580;2023-03-24T14:22:12;14.20;99.70
56234;DHT22;42141;53.240;6.580;2023-03-24T14:24:41;14.10;99.90
56234;DHT22;42141;53.240;6.580;2023-03-24T14:27:21;14.20;99.90
56234;DHT22;42141;53.240;6.580;2023-03-24T14:29:51;14.10;99.90
56234;DHT22;42141;53.240;6.580;2023-03-24T14:32:19;14.00;99.90
56234;DHT22;42141;53.240;6.580;2023-03-24T14:34:54;13.90;99.90
56234;DHT22;42141;53.240;6.580;2023-03-24T14:37:21;13.90;99.90
56234;DHT22;42141;53.240;6.580;2023-03-24T14:39:48;13.90;99.90
56234;DHT22;42141;53.240;6.580;2023-03-24T14:42:51;14.00;99.90
56234;DHT22;42141;53.240;6.580;2023-03-24T14:48:01;13.90;99.90
56234;DHT22;42141;53.240;6.580;2023-03-24T14:50:27;13.80;99.90
56234;DHT22;42141;53.240;6.580;2023-03-24T14:52:58;13.80;99.90
56234;DHT22;42141;53.240;6.580;2023-03-24T14:55:25;13.80;99.90
56234;DHT22;42141;53.240;6.580;2023-03-24T14:57:54;13.90;99.90
56234;DHT22;42141;53.240;6.580;2023-03-24T15:00:42;13.90;99.90
56234;DHT22;42141;53.240;6.580;2023-03-24T15:05:53;13.80;99.90
56234;DHT22;42141;53.240;6.580;2023-03-24T15:08:27;13.80;99.90
56234;DHT22;42141;53.240;6.580;2023-03-24T15:10:56;13.90;99.90
56234;DHT22;42141;53.240;6.580;2023-03-24T15:18:42;14.10;99.90
56234;DHT22;42141;53.240;6.580;2023-03-24T15:23:52;14.10;99.90
56234;DHT22;42141;53.240;6.580;2023-03-24T15:26:24;14.10;99.90
56234;DHT22;42141;53.240;6.580;2023-03-24T15:31:22;13.90;99.90
56234;DHT22;42141;53.240;6.580;2023-03-24T15:33:50;13.80;99.90
56234;DHT22;42141;53.240;6.580;2023-03-24T15:36:20;13.80;99.90
56234;DHT22;42141;53.240;6.580;2023-03-24T15:38:49;13.80;99.90
56234;DHT22;42141;53.240;6.580;2023-03-24T15:41:21;13.90;99.90
56234;DHT22;42141;53.240;6.580;2023-03-24T15:43:51;14.00;99.90
56234;DHT22;42141;53.240;6.580;2023-03-24T15:46:29;14.00;99.90
56234;DHT22;42141;53.240;6.580;2023-03-24T15:48:58;14.00;99.90
56234;DHT22;42141;53.240;6.580;2023-03-24T15:54:25;13.80;99.90
56234;DHT22;42141;53.240;6.580;2023-03-24T15:57:01;13.60;99.90
56234;DHT22;42141;53.240;6.580;2023-03-24T15:59:35;13.50;99.90
56234;DHT22;42141;53.240;6.580;2023-03-24T16:02:04;13.40;99.90
56234;DHT22;42141;53.240;6.580;2023-03-24T16:04:30;13.30;99.90
56234;DHT22;42141;53.240;6.580;2023-03-24T16:06:56;13.20;99.90
56234;DHT22;42141;53.240;6.580;2023-03-24T16:09:22;13.20;99.90
56234;DHT22;42141;53.240;6.580;2023-03-24T16:11:52;13.10;99.90
56234;DHT22;42141;53.240;6.580;2023-03-24T16:14:29;13.00;99.90
56234;DHT22;42141;53.240;6.580;2023-03-24T16:16:57;12.90;99.90
56234;DHT22;42141;53.240;6.580;2023-03-24T16:19:23;12.90;99.90
56234;DHT22;42141;53.240;6.580;2023-03-24T16:21:49;12.80;99.90
56234;DHT22;42141;53.240;6.580;2023-03-24T16:24:15;13.20;99.90
56234;DHT22;42141;53.240;6.580;2023-03-24T16:26:41;12.80;99.90
56234;DHT22;42141;53.240;6.580;2023-03-24T16:29:17;13.00;99.90
56234;DHT22;42141;53.240;6.580;2023-03-24T16:31:45;12.70;99.90
56234;DHT22;42141;53.240;6.580;2023-03-24T16:34:19;12.70;99.90
56234;DHT22;42141;53.240;6.580;2023-03-24T16:36:46;12.60;99.90
56234;DHT22;42141;53.240;6.580;2023-03-24T16:39:30;12.60;99.90
56234;DHT22;42141;53.240;6.580;2023-03-24T16:41:56;12.50;99.90
56234;DHT22;42141;53.240;6.580;2023-03-24T16:44:23;12.40;99.90
56234;DHT22;42141;53.240;6.580;2023-03-24T16:46:53;12.80;99.90
56234;DHT22;42141;53.240;6.580;2023-03-24T16:49:20;12.40;99.90
56234;DHT22;42141;53.240;6.580;2023-03-24T16:51:46;12.30;99.90
56234;DHT22;42141;53.240;6.580;2023-03-24T16:54:12;12.30;99.90
56234;DHT22;42141;53.240;6.580;2023-03-24T16:56:38;12.40;99.90
56234;DHT22;42141;53.240;6.580;2023-03-24T16:59:05;12.30;99.90
56234;DHT22;42141;53.240;6.580;2023-03-24T17:01:34;12.20;99.90
56234;DHT22;42141;53.240;6.580;2023-03-24T17:06:36;12.20;99.90
56234;DHT22;42141;53.240;6.580;2023-03-24T17:09:03;12.20;99.90
56234;DHT22;42141;53.240;6.580;2023-03-24T17:11:35;12.10;99.90
56234;DHT22;42141;53.240;6.580;2023-03-24T17:14:03;12.10;99.90
56234;DHT22;42141;53.240;6.580;2023-03-24T17:16:35;12.10;99.90
56234;DHT22;42141;53.240;6.580;2023-03-24T17:19:07;12.00;99.90
56234;DHT22;42141;53.240;6.580;2023-03-24T17:21:35;11.90;99.90
56234;DHT22;42141;53.240;6.580;2023-03-24T17:24:03;11.90;99.90
56234;DHT22;42141;53.240;6.580;2023-03-24T17:26:31;11.80;99.90
56234;DHT22;42141;53.240;6.580;2023-03-24T17:28:59;11.80;99.90
56234;DHT22;42141;53.240;6.580;2023-03-24T17:31:25;11.70;99.90
56234;DHT22;42141;53.240;6.580;2023-03-24T17:33:51;11.60;99.90
56234;DHT22;42141;53.240;6.580;2023-03-24T17:36:16;11.60;99.90
56234;DHT22;42141;53.240;6.580;2023-03-24T17:38:43;11.60;99.90
56234;DHT22;42141;53.240;6.580;2023-03-24T17:41:11;11.50;99.90
56234;DHT22;42141;53.240;6.580;2023-03-24T17:43:37;11.40;99.90
56234;DHT22;42141;53.240;6.580;2023-03-24T17:46:03;11.40;99.90
56234;DHT22;42141;53.240;6.580;2023-03-24T17:48:29;11.40;99.90
56234;DHT22;42141;53.240;6.580;2023-03-24T17:50:55;11.40;99.90
56234;DHT22;42141;53.240;6.580;2023-03-24T17:53:22;11.30;99.90
56234;DHT22;42141;53.240;6.580;2023-03-24T17:55:55;11.20;99.90
56234;DHT22;42141;53.240;6.580;2023-03-24T17:58:25;11.20;99.90
56234;DHT22;42141;53.240;6.580;2023-03-24T18:00:56;11.10;99.90
56234;DHT22;42141;53.240;6.580;2023-03-24T18:03:23;11.80;99.90
56234;DHT22;42141;53.240;6.580;2023-03-24T18:05:51;11.00;99.90
56234;DHT22;42141;53.240;6.580;2023-03-24T18:08:17;11.20;99.90
56234;DHT22;42141;53.240;6.580;2023-03-24T18:10:43;11.00;99.90
56234;DHT22;42141;53.240;6.580;2023-03-24T18:13:09;12.00;99.90
56234;DHT22;42141;53.240;6.580;2023-03-24T18:15:35;10.30;99.90
56234;DHT22;42141;53.240;6.580;2023-03-24T18:18:01;10.90;99.90
56234;DHT22;42141;53.240;6.580;2023-03-24T18:20:27;10.80;99.90
56234;DHT22;42141;53.240;6.580;2023-03-24T18:22:53;10.80;99.90
56234;DHT22;42141;53.240;6.580;2023-03-24T18:25:18;10.80;99.90
56234;DHT22;42141;53.240;6.580;2023-03-24T18:27:44;10.80;99.90